Delray Beach, FL (33448)

11:26 AM EDT on October 23, 2017 (GMT -0400)
MLXWS | | Change Station
Active Advisory: Coastal Hazard Statement Active Notice: Coastal Hazard Statement

Elev 9 ft 26.50 °N, 80.22 °W | Updated 161 days ago

Partly Cloudy
Partly Cloudy
77.0 °F
Feels Like 78 °F
N
8.0
Wind Variable Wind from North
Gusts 11.0 mph

Today
High -- | Low -- °F
--% Chance of Precip.
Yesterday
High -- | Low -- °F
Precip. -- in
Pressure 30.07 in
Visibility 8.0 miles
Clouds Clear
Heat Index 78 °F
Dew Point 72.0 °F
Humidity 83%
Rainfall 0.00 in
Snow Depth Not available.
7:24 AM 6:44 PM
Waxing Crescent, 14% visible
METAR KPMP 231453Z 13014KT 8SM CLR 29/23 A3007 RMK AO2 SLP183 T02940233 51007
Pressure 30.07 in
Visibility 8.0 miles
Clouds Clear
Heat Index 78 °F
Dew Point 72.0 °F
Humidity 83%
Rainfall 0.00 in
Snow Depth Not available.
7:24 AM 6:44 PM
Waxing Crescent, 14% visible
METAR KPMP 231453Z 13014KT 8SM CLR 29/23 A3007 RMK AO2 SLP183 T02940233 51007

Get Your Daily Forecast Email!

Thanks for signing up!

Be on the lookout for a verification email in your inbox.

You'll start receiving severe weather alerts in your inbox..

×

10-Day Weather Forecast

Almanac

Astronomy

Oct. 23, 2017 Rise Set
Actual Time
Civil Twilight
Nautical Twilight
Astronomical Twilight
Moon
Length of Visible Light
Length of Day
Tomorrow will be .
, % of the Moon is Illuminated

Today's Extremes

State Highs State Lows

Community

WunderPhotos

Category 6

Welcome to Category 6. This is the collective home for Weather Underground's featured writeups by Dr. Jeff Masters (right), Bob Henson (left), Chris Burt, and other regular contributors.

Nearby

Air Quality

  Air Quality AQ Index Pollutant
Not available.

Snow Depth

Station Depth Elevation

Earthquake Activity

City Distance Mag. Time & Date
Minimum magnitude displayed is 2.5.

Coastal Water Temperatures

Place Temperature

Stations

Nearby Weather Stations

Station Location Temp. Windchill Dew Point Humidity Wind Precip. Elev Updated Type
                   

Watches & Warnings

Coastal Hazard Statement
Issued: 3:06 AM EDT Oct. 23, 2017 – National Weather Service

... High rip current risk remains in effect through this evening...

* timing... through Monday evening.

* Rip current impacts... strong rip currents are forecast to
occur along the Atlantic beaches, which will be hazardous for
those in the surf zone.

Precautionary/preparedness actions...

There is a high risk of rip currents.

Rip currents are powerful channels of water flowing quickly away
from shore, which occur most often at low spots or breaks in The
Sandbar and in the vicinity of structures such as groins, jetties
and piers. Heed the advice of lifeguards, beach patrol flags and
signs.

Swim near a lifeguard. If caught in a rip current, relax and
float. Don't swim against the current. If able, swim in a
direction following the shoreline. If unable to escape, face the
shore and call or wave for help.




Http://www.Weather.Gov/Miami